Time;durP1;ratioP1;P1;durP2;ratioP2;P2;SDS_P1;SDS_P2;PMS_P1;PMS_P2;Temp;Humidity;BMP_temperature;BMP_pressure;BME280_temperature;BME280_humidity;BME280_pressure;Samples;Min_cycle;Max_cycle;Signal;HPM_P1;HPM_P2
2021/11/01 00:01:44;;;;;;;30.63;19.97;;;12.40;1.00;;;;;;5101368;28;20243;-58
2021/11/01 00:04:09;;;;;;;27.40;19.63;;;12.30;1.00;;;;;;5095508;28;20447;-59
2021/11/01 00:06:35;;;;;;;23.80;18.57;;;;;;;;;;5102529;28;20662;-60
2021/11/01 00:09:02;;;;;;;26.30;21.03;;;12.40;1.00;;;;;;5098686;28;20194;-60
2021/11/01 00:11:28;;;;;;;23.13;19.50;;;;;;;;;;5097414;28;20450;-59
2021/11/01 00:13:53;;;;;;;25.50;20.53;;;;;;;;;;5106180;28;20442;-59
2021/11/01 00:16:19;;;;;;;24.60;20.47;;;;;;;;;;5100879;28;20483;-60
2021/11/01 00:18:45;;;;;;;27.37;19.90;;;12.40;1.00;;;;;;5100940;28;20449;-60
2021/11/01 00:21:11;;;;;;;25.60;20.90;;;;;;;;;;5093693;28;20411;-60
2021/11/01 00:23:38;;;;;;;24.40;20.87;;;;;;;;;;5110333;28;20193;-59
2021/11/01 00:26:03;;;;;;;25.97;19.60;;;12.20;1.00;;;;;;5104064;28;20440;-59
2021/11/01 00:28:29;;;;;;;25.10;20.13;;;12.20;1.00;;;;;;5109747;28;20447;-59
2021/11/01 00:30:58;;;;;;;22.10;19.70;;;;;;;;;;5109280;28;20245;-60
2021/11/01 00:33:25;;;;;;;23.43;20.23;;;12.10;1.00;;;;;;5103122;28;20191;-60
2021/11/01 00:35:51;;;;;;;25.67;20.70;;;;;;;;;;5099988;28;20438;-59
2021/11/01 00:38:18;;;;;;;26.07;20.20;;;;;;;;;;5099643;28;20797;-59
2021/11/01 00:40:43;;;;;;;25.73;19.13;;;12.10;1.00;;;;;;5098633;28;22408;-59
2021/11/01 00:43:09;;;;;;;25.30;20.27;;;;;;;;;;5101721;28;20408;-60
2021/11/01 00:45:36;;;;;;;25.13;19.83;;;12.20;1.00;;;;;;5101744;28;20198;-59
2021/11/01 00:48:02;;;;;;;26.87;19.53;;;12.50;1.00;;;;;;5100027;28;21057;-61
2021/11/01 00:50:29;;;;;;;26.13;20.37;;;;;;;;;;5101917;28;20569;-59
2021/11/01 00:52:56;;;;;;;24.77;20.20;;;;;;;;;;5100557;28;20422;-61
2021/11/01 00:58:22;;;;;;;22.97;20.07;;;12.20;1.00;;;;;;5070959;28;20462;-59
2021/11/01 01:00:48;;;;;;;30.73;19.77;;;12.20;1.00;;;;;;5108838;28;20962;-60
2021/11/01 01:03:14;;;;;;;27.20;19.90;;;;;;;;;;5106469;28;20572;-60
2021/11/01 01:05:44;;;;;;;29.20;20.77;;;12.00;1.00;;;;;;5103032;28;20476;-59
2021/11/01 01:08:12;;;;;;;28.83;20.90;;;11.90;1.00;;;;;;5103634;28;20441;-60
2021/11/01 01:10:38;;;;;;;27.87;21.37;;;;;;;;;;5108702;28;20531;-60
2021/11/01 01:13:05;;;;;;;26.37;20.00;;;;;;;;;;5097049;28;20494;-59
2021/11/01 01:15:38;;;;;;;25.43;19.63;;;;;;;;;;5102177;28;20552;-61
2021/11/01 01:18:10;;;;;;;26.63;21.00;;;12.40;1.00;;;;;;5093493;28;20444;-59
2021/11/01 01:20:36;;;;;;;27.70;21.10;;;12.00;1.00;;;;;;5096016;28;20919;-59
2021/11/01 01:23:02;;;;;;;25.03;19.83;;;;;;;;;;5090981;28;20491;-58
2021/11/01 01:25:54;;;;;;;24.17;20.97;;;11.90;1.00;;;;;;5102903;28;20198;-59
2021/11/01 01:28:23;;;;;;;26.47;20.03;;;11.70;1.00;;;;;;5102250;28;20824;-59
2021/11/01 01:30:50;;;;;;;22.73;19.37;;;;;;;;;;5111813;28;20411;-59
2021/11/01 01:33:16;;;;;;;25.03;19.70;;;;;;;;;;5102322;28;20449;-60
2021/11/01 01:35:41;;;;;;;26.60;21.77;;;11.90;1.00;;;;;;5098516;28;20459;-61
2021/11/01 01:38:09;;;;;;;23.07;18.47;;;12.20;1.00;;;;;;5106727;28;21245;-59
2021/11/01 01:40:35;;;;;;;28.10;22.03;;;;;;;;;;5084549;28;20531;-60
2021/11/01 01:43:03;;;;;;;28.53;21.00;;;;;;;;;;5108996;28;20430;-59
2021/11/01 01:45:30;;;;;;;23.20;19.50;;;12.20;1.00;;;;;;5102525;28;20535;-59
2021/11/01 01:47:56;;;;;;;26.20;20.80;;;12.20;1.00;;;;;;5106432;28;20479;-60
2021/11/01 01:50:22;;;;;;;26.67;21.07;;;;;;;;;;5098818;28;20514;-59
2021/11/01 01:52:53;;;;;;;28.87;21.10;;;;;;;;;;5108893;28;20544;-59
2021/11/01 01:55:20;;;;;;;28.20;21.83;;;12.10;1.00;;;;;;5101383;28;20470;-59
2021/11/01 01:57:46;;;;;;;24.90;21.03;;;12.10;1.00;;;;;;5109972;28;20802;-59
2021/11/01 02:00:37;;;;;;;24.27;20.37;;;12.10;1.00;;;;;;5098761;28;20449;-60
2021/11/01 02:03:03;;;;;;;25.53;20.37;;;12.10;1.00;;;;;;5100846;28;20440;-60
2021/11/01 02:06:08;;;;;;;25.20;20.17;;;11.90;1.00;;;;;;5111888;28;20439;-59
2021/11/01 02:08:42;;;;;;;26.90;22.23;;;12.00;1.00;;;;;;5106397;28;20185;-60
2021/11/01 02:11:14;;;;;;;28.37;22.30;;;11.90;1.00;;;;;;5109001;28;20498;-59
2021/11/01 02:13:44;;;;;;;29.63;20.80;;;12.10;1.00;;;;;;5098661;28;20538;-60
2021/11/01 02:16:11;;;;;;;26.60;20.53;;;;;;;;;;5103111;28;20444;-60
2021/11/01 02:18:38;;;;;;;31.43;22.80;;;;;;;;;;5109631;28;20399;-60
2021/11/01 02:21:21;;;;;;;26.33;20.90;;;11.80;1.00;;;;;;5086207;28;20933;-59
2021/11/01 02:24:01;;;;;;;26.43;21.00;;;11.80;1.00;;;;;;5111901;28;20458;-59
2021/11/01 02:26:27;;;;;;;27.67;22.20;;;11.60;1.00;;;;;;5109623;28;20448;-59
2021/11/01 02:28:54;;;;;;;26.00;21.27;;;11.60;1.00;;;;;;5105207;28;20460;-60
2021/11/01 02:31:21;;;;;;;30.10;22.13;;;;;;;;;;5097679;28;20421;-60
2021/11/01 02:33:50;;;;;;;25.93;21.20;;;11.90;1.00;;;;;;5105754;28;20436;-60
2021/11/01 02:36:17;;;;;;;26.50;21.33;;;11.90;1.00;;;;;;5107565;28;20464;-60
2021/11/01 02:38:45;;;;;;;24.57;20.20;;;11.80;1.00;;;;;;5101183;28;20420;-60
2021/11/01 02:41:24;;;;;;;32.23;23.97;;;;;;;;;;5105247;28;20461;-60
2021/11/01 02:43:55;;;;;;;25.57;21.83;;;11.90;1.00;;;;;;5093336;28;20435;-60
2021/11/01 02:46:21;;;;;;;28.20;22.17;;;;;;;;;;5103943;28;20441;-61
2021/11/01 02:48:48;;;;;;;28.57;22.80;;;11.90;1.00;;;;;;5105237;28;20985;-60
2021/11/01 02:51:16;;;;;;;27.70;22.00;;;11.70;1.00;;;;;;5094723;28;20441;-60
2021/11/01 02:53:46;;;;;;;26.57;20.90;;;11.70;1.00;;;;;;5110513;28;21019;-58
2021/11/01 02:56:12;;;;;;;25.60;21.17;;;11.70;1.00;;;;;;5100593;28;20759;-60
2021/11/01 02:58:40;;;;;;;30.23;23.57;;;;;;;;;;5104698;28;20488;-60
2021/11/01 03:01:08;;;;;;;27.67;21.50;;;11.70;1.00;;;;;;5110496;28;20523;-59
2021/11/01 03:03:35;;;;;;;28.07;22.63;;;11.80;1.00;;;;;;5101998;28;20436;-60
2021/11/01 03:06:01;;;;;;;28.67;22.47;;;11.80;1.00;;;;;;5102003;28;20766;-61
2021/11/01 03:08:29;;;;;;;29.13;22.70;;;11.80;1.00;;;;;;5110866;28;20452;-59
2021/11/01 03:10:55;;;;;;;28.60;21.30;;;11.70;1.00;;;;;;5099716;28;20964;-60
2021/11/01 03:13:23;;;;;;;29.83;22.73;;;11.80;1.00;;;;;;5102332;28;20403;-59
2021/11/01 03:15:49;;;;;;;27.87;23.70;;;12.00;1.00;;;;;;5104839;28;20468;-59
2021/11/01 03:18:16;;;;;;;26.70;21.30;;;11.80;1.00;;;;;;5105998;28;20502;-60
2021/11/01 03:20:44;;;;;;;31.37;24.00;;;;;;;;;;5090577;28;20451;-59
2021/11/01 03:23:24;;;;;;;27.17;22.13;;;11.70;1.00;;;;;;5109732;28;20737;-59
2021/11/01 03:26:00;;;;;;;27.40;22.63;;;11.70;1.00;;;;;;5097385;28;20527;-59
2021/11/01 03:28:26;;;;;;;27.67;21.27;;;11.80;1.00;;;;;;5110454;28;20426;-59
2021/11/01 03:30:56;;;;;;;31.73;22.80;;;11.70;1.00;;;;;;5097156;28;20437;-59
2021/11/01 03:33:22;;;;;;;29.30;22.93;;;11.90;1.00;;;;;;5108860;28;20415;-59
2021/11/01 03:35:49;;;;;;;31.80;24.23;;;11.80;1.00;;;;;;5105735;28;20434;-59
2021/11/01 03:38:15;;;;;;;30.17;22.93;;;11.50;1.00;;;;;;5098653;28;20556;-59
2021/11/01 03:40:46;;;;;;;28.60;21.73;;;11.40;1.00;;;;;;5097460;28;20425;-58
2021/11/01 03:43:16;;;;;;;32.73;23.50;;;11.40;1.00;;;;;;5101472;28;20944;-60
2021/11/01 03:45:42;;;;;;;30.00;21.60;;;11.40;1.00;;;;;;5101300;28;20787;-58
2021/11/01 03:48:09;;;;;;;28.67;23.30;;;11.80;1.00;;;;;;5095949;28;20469;-59
2021/11/01 03:50:45;;;;;;;29.43;23.40;;;11.60;1.00;;;;;;5098322;28;20592;-60
2021/11/01 03:53:11;;;;;;;29.83;21.90;;;;;;;;;;5104941;28;20499;-59
2021/11/01 03:55:37;;;;;;;35.10;22.57;;;;;;;;;;5077711;28;20444;-60
2021/11/01 03:58:03;;;;;;;27.27;22.33;;;11.80;1.00;;;;;;5104715;28;20419;-60
2021/11/01 04:00:33;;;;;;;28.77;22.20;;;11.50;1.00;;;;;;5107949;28;20502;-59
2021/11/01 04:03:00;;;;;;;28.80;22.50;;;11.10;1.00;;;;;;5079247;28;20524;-59
2021/11/01 04:05:25;;;;;;;29.17;23.73;;;11.70;1.00;;;;;;5098948;28;20463;-59
2021/11/01 04:07:51;;;;;;;29.20;22.93;;;;;;;;;;5109505;28;20506;-59
2021/11/01 04:10:17;;;;;;;28.70;22.40;;;11.60;1.00;;;;;;5104093;28;20247;-59
2021/11/01 04:12:43;;;;;;;32.60;24.67;;;11.20;1.00;;;;;;5103372;28;20412;-59
2021/11/01 04:15:13;;;;;;;28.13;23.40;;;11.40;1.00;;;;;;5098581;28;20190;-59
2021/11/01 04:17:44;;;;;;;27.87;22.60;;;11.70;1.00;;;;;;5110626;28;20835;-59
2021/11/01 04:22:52;;;;;;;30.53;23.13;;;11.40;1.00;;;;;;5095005;28;20437;-59
2021/11/01 04:25:20;;;;;;;30.30;24.00;;;11.20;1.00;;;;;;5095634;28;20871;-60
2021/11/01 04:27:46;;;;;;;31.30;24.10;;;11.30;1.00;;;;;;5101220;28;20436;-58
2021/11/01 04:30:12;;;;;;;32.57;24.97;;;11.60;1.00;;;;;;5095143;28;20479;-59
2021/11/01 04:32:39;;;;;;;31.20;23.07;;;11.30;1.00;;;;;;5086504;28;20469;-59
2021/11/01 04:35:12;;;;;;;32.57;26.03;;;11.40;1.00;;;;;;5105903;28;20186;-58
2021/11/01 04:37:39;;;;;;;31.20;24.57;;;11.60;1.00;;;;;;5102146;28;20541;-60
2021/11/01 04:53:38;;;;;;;31.30;23.90;;;11.40;1.00;;;;;;5098770;28;20552;-59
2021/11/01 04:56:04;;;;;;;29.93;22.60;;;11.40;1.00;;;;;;5105858;28;20441;-60
2021/11/01 04:58:30;;;;;;;29.23;23.77;;;;;;;;;;5107768;28;20436;-60
2021/11/01 05:00:56;;;;;;;29.50;23.83;;;11.30;1.00;;;;;;5098539;28;20539;-59
2021/11/01 05:05:47;;;;;;;30.13;23.33;;;11.20;1.00;;;;;;5107778;28;20199;-58
2021/11/01 05:08:15;;;;;;;30.57;22.10;;;11.50;1.00;;;;;;5106028;28;20175;-59
2021/11/01 05:10:44;;;;;;;31.23;23.70;;;;;;;;;;5108039;28;20444;-62
2021/11/01 05:13:16;;;;;;;31.90;24.30;;;11.50;1.00;;;;;;5109902;28;20444;-62
2021/11/01 05:16:00;;;;;;;31.00;24.40;;;;;;;;;;5113385;28;20448;-62
2021/11/01 05:18:37;;;;;;;30.10;23.53;;;11.60;1.00;;;;;;5104532;28;20419;-62
2021/11/01 05:24:10;;;;;;;33.23;25.57;;;11.60;1.00;;;;;;5112660;28;20493;-63
2021/11/01 05:26:52;;;;;;;27.63;23.00;;;;;;;;;;5098301;28;20451;-63
2021/11/01 05:29:19;;;;;;;32.63;24.80;;;;;;;;;;5100181;28;20447;-62
2021/11/01 05:32:11;;;;;;;30.50;24.87;;;;;;;;;;5103278;28;20472;-60
2021/11/01 05:34:31;;;;;;;30.47;24.50;;;;;;;;;;5100982;28;20437;-60
2021/11/01 05:36:57;;;;;;;35.07;24.33;;;;;;;;;;5105704;28;20452;-61
2021/11/01 05:39:23;;;;;;;30.67;24.40;;;;;;;;;;5081558;28;20461;-61
2021/11/01 05:41:49;;;;;;;35.90;24.43;;;;;;;;;;5104192;28;20464;-60
2021/11/01 05:44:15;;;;;;;35.53;26.93;;;;;;;;;;5101382;28;21004;-60
2021/11/01 05:46:47;;;;;;;33.20;24.60;;;;;;;;;;5097300;28;20420;-59
2021/11/01 05:49:13;;;;;;;31.57;24.60;;;11.50;1.00;;;;;;5099823;28;20465;-60
2021/11/01 05:51:39;;;;;;;32.90;23.37;;;11.40;1.00;;;;;;5096813;28;21069;-59
2021/11/01 05:54:10;;;;;;;32.83;25.50;;;;;;;;;;5109489;28;20186;-63
2021/11/01 05:59:23;;;;;;;33.07;25.60;;;11.00;1.00;;;;;;5109283;28;20480;-60
2021/11/01 06:09:58;;;;;;;29.83;24.23;;;11.30;1.00;;;;;;5108523;28;20445;-59
2021/11/01 06:15:08;;;;;;;37.13;25.37;;;;;;;;;;5104867;28;20447;-59
2021/11/01 06:17:35;;;;;;;36.60;25.70;;;;;;;;;;5105527;28;20486;-59
2021/11/01 06:20:01;;;;;;;32.27;24.87;;;;;;;;;;5092706;28;20424;-59
2021/11/01 06:22:27;;;;;;;33.07;25.50;;;;;;;;;;5092653;28;21002;-60
2021/11/01 06:25:28;;;;;;;31.23;23.97;;;;;;;;;;5095636;28;20472;-59
2021/11/01 06:27:47;;;;;;;30.30;24.43;;;;;;;;;;5108126;28;20441;-59
2021/11/01 06:30:22;;;;;;;30.87;25.30;;;;;;;;;;5083172;28;20478;-59
2021/11/01 06:51:41;;;;;;;29.53;23.33;;;;;;;;;;5111939;28;20916;-60
2021/11/01 08:30:01;;;;;;;29.07;22.97;;;;;;;;;;5110816;28;20415;-59
2021/11/01 09:04:10;;;;;;;30.33;24.67;;;13.10;1.00;;;;;;5114522;28;20441;-60
2021/11/01 09:06:55;;;;;;;30.30;24.30;;;12.90;1.00;;;;;;5114795;28;20489;-60
2021/11/01 09:20:21;;;;;;;29.20;24.80;;;13.10;1.00;;;;;;5114647;28;20427;-60
2021/11/01 09:28:11;;;;;;;31.30;26.00;;;12.90;1.00;;;;;;5114013;28;20584;-59
2021/11/01 09:41:00;;;;;;;34.63;26.00;;;13.60;1.00;;;;;;5113721;28;20419;-60
2021/11/01 09:43:26;;;;;;;30.00;24.30;;;;;;;;;;5113923;28;20437;-60
2021/11/01 09:45:56;;;;;;;34.50;25.50;;;13.00;1.00;;;;;;5113656;28;20548;-59
2021/11/01 09:48:23;;;;;;;33.83;26.10;;;13.50;1.00;;;;;;5113379;28;20633;-60
2021/11/01 09:50:51;;;;;;;33.00;24.97;;;;;;;;;;5113477;28;20453;-60
2021/11/01 09:53:22;;;;;;;31.37;24.73;;;;;;;;;;5112121;28;20418;-61
2021/11/01 09:55:51;;;;;;;35.60;26.77;;;13.60;1.00;;;;;;5093137;28;20419;-60
2021/11/01 10:01:05;;;;;;;29.30;24.47;;;13.70;1.00;;;;;;5093446;28;20437;-60
2021/11/01 10:03:51;;;;;;;31.77;25.07;;;13.70;1.00;;;;;;5092700;28;20876;-61
2021/11/01 10:06:21;;;;;;;32.53;24.97;;;;;;;;;;5092820;28;20446;-59
2021/11/01 10:08:53;;;;;;;31.80;25.03;;;13.60;1.00;;;;;;5112148;28;20761;-61
2021/11/01 10:11:47;;;;;;;33.33;25.50;;;13.70;1.00;;;;;;5113281;28;20435;-60
2021/11/01 10:14:13;;;;;;;28.10;24.10;;;13.40;1.00;;;;;;5097284;28;20451;-60
2021/11/01 10:19:35;;;;;;;29.00;24.40;;;;;;;;;;5092762;28;20196;-59
2021/11/01 10:22:34;;;;;;;31.67;23.77;;;13.70;1.00;;;;;;5107865;28;20440;-62
2021/11/01 10:25:00;;;;;;;29.03;23.03;;;;;;;;;;5082999;28;20463;-59
2021/11/01 10:27:35;;;;;;;31.10;25.40;;;13.70;1.00;;;;;;5112798;28;20926;-60
2021/11/01 10:30:08;;;;;;;32.23;25.20;;;13.60;1.00;;;;;;5106714;28;20451;-59
2021/11/01 10:32:38;;;;;;;33.60;24.77;;;;;;;;;;5092337;28;20658;-60
2021/11/01 10:35:25;;;;;;;31.27;24.30;;;;;;;;;;5107744;28;20501;-60
2021/11/01 10:38:39;;;;;;;31.30;24.60;;;13.70;1.00;;;;;;5110890;28;20452;-60
2021/11/01 11:13:48;;;;;;;31.50;25.67;;;14.40;1.00;;;;;;5071333;28;20512;-59
2021/11/01 11:25:13;;;;;;;29.63;24.10;;;14.50;1.00;;;;;;5066006;28;20526;-60
2021/11/01 11:47:06;;;;;;;33.23;26.10;;;14.50;1.00;;;;;;5048226;28;20926;-60
2021/11/01 11:48:22;;;;;;;32.00;25.10;;;14.60;1.00;;;;;;5036456;28;20541;-59
2021/11/01 11:50:49;;;;;;;32.03;26.30;;;14.60;1.00;;;;;;5068068;28;20522;-60
2021/11/01 11:53:17;;;;;;;31.70;24.90;;;14.50;1.00;;;;;;5067083;28;20448;-60
2021/11/01 11:55:45;;;;;;;33.30;25.30;;;14.50;1.00;;;;;;5050657;28;20448;-60
2021/11/01 11:58:14;;;;;;;30.40;25.73;;;14.70;1.00;;;;;;5068215;28;20521;-61
2021/11/01 12:00:41;;;;;;;32.43;27.30;;;14.50;1.00;;;;;;5070336;28;20403;-60
2021/11/01 12:03:12;;;;;;;29.60;25.17;;;14.50;1.00;;;;;;5070264;28;20417;-59
2021/11/01 12:06:00;;;;;;;33.27;25.63;;;14.20;1.00;;;;;;5070583;28;21049;-59
2021/11/01 12:08:37;;;;;;;32.97;27.90;;;14.60;1.00;;;;;;5070374;28;20417;-60
2021/11/01 12:19:05;;;;;;;32.30;24.80;;;14.80;1.00;;;;;;5061601;28;20441;-60
2021/11/01 12:21:37;;;;;;;31.70;25.73;;;14.70;1.00;;;;;;5050431;28;20524;-61
2021/11/01 12:24:10;;;;;;;32.67;26.23;;;;;;;;;;5068511;28;20441;-60
2021/11/01 12:26:43;;;;;;;30.10;26.07;;;14.80;1.00;;;;;;5065598;28;20788;-60
2021/11/01 12:29:11;;;;;;;29.90;24.70;;;14.40;1.00;;;;;;5050263;28;20416;-60
2021/11/01 12:31:37;;;;;;;29.93;26.07;;;;;;;;;;5050206;28;20473;-60
2021/11/01 12:34:24;;;;;;;34.10;27.10;;;;;;;;;;5050039;28;20436;-59
2021/11/01 12:36:56;;;;;;;32.47;26.57;;;14.10;1.00;;;;;;5068297;28;20405;-60
2021/11/01 12:39:37;;;;;;;33.70;27.40;;;14.00;1.00;;;;;;5069515;28;20491;-59
2021/11/01 12:58:56;;;;;;;32.90;27.73;;;14.00;1.00;;;;;;5109963;28;20430;-60
2021/11/01 13:01:23;;;;;;;34.27;28.90;;;13.80;1.00;;;;;;5092416;28;20419;-59
2021/11/01 13:03:50;;;;;;;35.20;26.13;;;13.70;1.00;;;;;;5110804;28;20408;-60
2021/11/01 13:06:30;;;;;;;35.03;27.63;;;13.70;1.00;;;;;;5110374;28;20992;-60
2021/11/01 13:08:58;;;;;;;32.67;26.83;;;13.50;1.00;;;;;;5112273;28;20479;-60
2021/11/01 13:11:43;;;;;;;34.47;28.70;;;;;;;;;;5110241;28;20441;-60
2021/11/01 13:19:53;;;;;;;36.17;27.50;;;;;;;;;;5109248;28;20455;-60
2021/11/01 13:22:30;;;;;;;35.00;25.90;;;;;;;;;;5109939;28;20577;-59
2021/11/01 13:38:49;;;;;;;36.53;26.73;;;13.40;1.00;;;;;;5093539;28;20537;-59
2021/11/01 13:41:30;;;;;;;36.60;28.83;;;13.40;1.00;;;;;;5093539;28;20953;-60
2021/11/01 13:44:08;;;;;;;38.03;29.33;;;13.40;1.00;;;;;;5111939;28;20436;-60
2021/11/01 13:46:44;;;;;;;37.67;28.27;;;13.30;1.00;;;;;;5113378;28;20465;-60
2021/11/01 13:49:10;;;;;;;39.97;29.97;;;;;;;;;;5113691;28;20970;-60
2021/11/01 13:51:36;;;;;;;39.03;29.10;;;13.90;1.00;;;;;;5113837;28;20857;-61
2021/11/01 13:56:41;;;;;;;44.80;29.30;;;13.20;1.00;;;;;;5113879;28;20242;-61
2021/11/01 14:15:51;;;;;;;43.83;28.93;;;13.60;1.00;;;;;;5107237;28;20411;-60
2021/11/01 15:16:05;;;;;;;38.20;26.20;;;;;;;;;;5111960;28;20958;-60
2021/11/01 15:39:34;;;;;;;39.47;29.40;;;13.10;1.00;;;;;;5111252;28;20482;-59
2021/11/01 16:20:09;;;;;;;43.53;33.33;;;12.60;1.00;;;;;;5099845;28;20505;-59
2021/11/01 16:22:36;;;;;;;42.80;33.27;;;;;;;;;;5096604;28;20450;-58
2021/11/01 16:25:02;;;;;;;45.00;36.50;;;12.60;1.00;;;;;;5107747;28;20829;-60
2021/11/01 16:27:29;;;;;;;46.00;34.93;;;;;;;;;;5095689;28;20901;-59
2021/11/01 16:30:31;;;;;;;41.87;32.63;;;;;;;;;;5108784;28;20415;-59
2021/11/01 16:32:52;;;;;;;45.63;34.40;;;12.90;1.00;;;;;;5097509;28;20437;-58
2021/11/01 16:35:24;;;;;;;40.63;31.23;;;12.60;1.00;;;;;;5104314;28;20444;-58
2021/11/01 16:38:42;;;;;;;48.33;35.60;;;;;;;;;;5097787;28;20453;-59
2021/11/01 16:40:40;;;;;;;43.27;32.47;;;12.70;1.00;;;;;;5092934;28;20445;-59
2021/11/01 16:43:14;;;;;;;43.70;32.60;;;;;;;;;;5098099;28;20432;-59
2021/11/01 16:45:40;;;;;;;50.63;34.53;;;12.90;1.00;;;;;;5097824;28;20463;-59
2021/11/01 16:48:07;;;;;;;43.80;32.80;;;12.70;1.00;;;;;;5101767;28;20559;-58
2021/11/01 16:50:33;;;;;;;44.40;32.70;;;;;;;;;;5098703;28;20416;-59
2021/11/01 16:52:59;;;;;;;45.50;31.73;;;12.10;1.00;;;;;;5105483;28;20919;-59
2021/11/01 16:55:37;;;;;;;42.90;32.17;;;;;;;;;;5103869;28;20450;-59
2021/11/01 16:58:12;;;;;;;44.43;33.73;;;;;;;;;;5106092;28;20455;-59
2021/11/01 17:00:52;;;;;;;49.93;33.80;;;12.50;1.00;;;;;;5110661;28;20471;-59
2021/11/01 17:06:09;;;;;;;42.87;32.00;;;12.20;1.00;;;;;;5098779;28;20984;-58
2021/11/01 17:24:31;;;;;;;45.57;33.13;;;;;;;;;;5107230;28;20460;-59
2021/11/01 17:35:41;;;;;;;47.93;34.83;;;12.30;6.40;;;;;;5105417;28;20512;-59
2021/11/01 18:42:00;;;;;;;58.57;41.17;;;;;;;;;;5092866;28;20410;-60
2021/11/01 18:44:54;;;;;;;61.23;42.80;;;12.20;52.80;;;;;;5106318;28;20922;-58
2021/11/01 18:52:57;;;;;;;59.33;40.10;;;11.90;45.70;;;;;;5092545;28;20476;-59
2021/11/01 18:55:23;;;;;;;63.30;42.37;;;12.10;47.40;;;;;;5092403;28;20441;-59
2021/11/01 18:57:50;;;;;;;57.00;40.40;;;;;;;;;;5091146;28;20453;-57
2021/11/01 19:00:17;;;;;;;58.97;40.27;;;11.70;46.10;;;;;;5099359;28;21055;-58
2021/11/01 19:02:49;;;;;;;63.47;42.60;;;12.00;41.10;;;;;;5110184;28;20419;-57
2021/11/01 20:02:40;;;;;;;64.43;43.30;;;;;;;;;;5109993;28;20452;-59
2021/11/01 20:05:36;;;;;;;58.07;41.70;;;11.80;90.30;;;;;;5105707;28;20468;-59
2021/11/01 21:25:43;;;;;;;61.17;40.27;;;12.00;99.90;;;;;;5106034;28;20480;-59
2021/11/01 21:28:09;;;;;;;59.60;41.67;;;;;;;;;;5090231;28;20818;-59
2021/11/01 21:30:35;;;;;;;56.43;39.07;;;;;;;;;;5101621;28;21018;-60
2021/11/01 21:33:01;;;;;;;56.93;39.73;;;;;;;;;;5104224;28;20535;-59
2021/11/01 21:35:29;;;;;;;63.33;39.37;;;;;;;;;;5097560;28;20795;-59
2021/11/01 21:37:56;;;;;;;59.80;40.70;;;;;;;;;;5101558;28;20478;-59
2021/11/01 21:40:22;;;;;;;57.80;38.30;;;12.30;99.90;;;;;;5091626;28;20496;-59
2021/11/01 21:42:51;;;;;;;52.77;36.63;;;;;;;;;;5088873;28;20559;-60
2021/11/01 21:45:17;;;;;;;58.63;40.47;;;11.80;99.90;;;;;;5097486;28;20439;-60
2021/11/01 21:47:43;;;;;;;47.90;32.67;;;;;;;;;;5108007;28;20979;-61
2021/11/01 21:50:09;;;;;;;44.53;32.10;;;;;;;;;;5109158;28;20236;-58
2021/11/01 21:52:35;;;;;;;47.73;34.87;;;11.30;99.90;;;;;;5109756;28;20432;-59
2021/11/01 21:55:04;;;;;;;49.13;34.17;;;11.90;99.90;;;;;;5099569;28;20448;-58
2021/11/01 21:57:43;;;;;;;50.10;33.73;;;;;;;;;;5097507;28;20457;-59
2021/11/01 22:00:29;;;;;;;48.13;33.10;;;;;;;;;;5102656;28;20809;-59
2021/11/01 22:21:54;;;;;;;43.70;29.97;;;11.60;99.90;;;;;;5103703;28;20440;-58
2021/11/01 22:24:31;;;;;;;48.47;33.20;;;12.30;99.90;;;;;;5087194;28;20449;-58
2021/11/01 22:32:54;;;;;;;38.83;27.37;;;;;;;;;;5109391;28;20494;-59
2021/11/01 22:41:24;;;;;;;36.60;22.87;;;11.80;99.90;;;;;;5077189;28;20520;-60
2021/11/01 22:57:22;;;;;;;22.27;16.27;;;;;;;;;;5098078;28;21717;-59
2021/11/01 22:59:48;;;;;;;18.03;12.80;;;;;;;;;;5105138;28;20535;-59
2021/11/01 23:02:14;;;;;;;21.70;15.47;;;;;;;;;;5099277;28;20537;-58
2021/11/01 23:31:30;;;;;;;22.40;15.57;;;;;;;;;;5100891;28;20414;-59
2021/11/01 23:33:57;;;;;;;23.63;16.20;;;11.60;91.50;;;;;;5101749;28;20907;-59
2021/11/01 23:36:23;;;;;;;20.33;15.53;;;;;;;;;;5108367;28;20430;-59
2021/11/01 23:38:50;;;;;;;29.00;19.07;;;;;;;;;;5105680;28;20411;-58
2021/11/01 23:41:16;;;;;;;25.90;19.97;;;11.70;82.00;;;;;;5102208;28;20491;-59
2021/11/01 23:43:42;;;;;;;30.10;19.27;;;12.10;93.70;;;;;;5110211;28;20440;-59
2021/11/01 23:46:08;;;;;;;24.27;18.27;;;;;;;;;;5081824;28;20438;-58
2021/11/01 23:48:35;;;;;;;28.90;20.33;;;;;;;;;;5108254;28;20829;-58
2021/11/01 23:51:01;;;;;;;23.67;17.40;;;;;;;;;;5101854;28;20415;-59
2021/11/01 23:56:08;;;;;;;22.37;16.20;;;11.60;90.20;;;;;;5106979;28;20924;-59
2021/11/01 23:58:38;;;;;;;24.73;15.90;;;11.50;74.90;;;;;;5104738;28;20455;-59
